CEB905 RPLL-RPVE
Flight info
| Callsign | CEB905 |
|---|---|
| Flight time | N/A |
| Altitude | 25000 |
| Route | HARBO1/31 VERDE W24 TAPER TAPER7B |
| Aircraft | A20N/L-V/N |
Departure
| Time | N/A |
|---|---|
| Airport | Ninoy Aquino International Airport (RPLL) |
Arrival
| Time | 2026-04-26 10:25 |
|---|---|
| Airport | Godofredo P. Ramos Airport (RPVE) |
| Time | Latitude | Longitude | Altitude | Speed | Heading |
|---|---|---|---|---|---|
| 2026-04-26 09:56 | 13.84645 | 120.97691 | 20171 ft | 339 kts | 173° |
| 2026-04-26 09:56 | 13.82305 | 120.98064 | 20498 ft | 341 kts | 173° |
| 2026-04-26 09:56 | 13.79964 | 120.98437 | 20831 ft | 343 kts | 173° |
| 2026-04-26 09:57 | 13.77575 | 120.98819 | 21157 ft | 345 kts | 173° |
| 2026-04-26 09:57 | 13.73164 | 120.99525 | 21748 ft | 350 kts | 173° |
| 2026-04-26 09:57 | 13.70760 | 120.99908 | 22061 ft | 352 kts | 173° |
| 2026-04-26 09:58 | 13.68311 | 121.00298 | 22377 ft | 354 kts | 173° |
| 2026-04-26 09:58 | 13.65858 | 121.00689 | 22700 ft | 356 kts | 173° |
| 2026-04-26 09:58 | 13.63409 | 121.01080 | 23026 ft | 358 kts | 173° |
| 2026-04-26 09:58 | 13.60921 | 121.01478 | 23358 ft | 360 kts | 173° |
| 2026-04-26 09:59 | 13.58437 | 121.01874 | 23685 ft | 361 kts | 173° |
| 2026-04-26 09:59 | 13.55947 | 121.02271 | 24013 ft | 362 kts | 173° |
| 2026-04-26 09:59 | 13.53439 | 121.02672 | 24334 ft | 364 kts | 172° |
| 2026-04-26 09:59 | 13.50972 | 121.03280 | 24626 ft | 368 kts | 162° |
| 2026-04-26 10:00 | 13.49381 | 121.03953 | 24810 ft | 371 kts | 155° |
| 2026-04-26 10:00 | 13.46420 | 121.05821 | 24890 ft | 385 kts | 147° |
| 2026-04-26 10:00 | 13.44198 | 121.07420 | 24906 ft | 395 kts | 146° |
| 2026-04-26 10:00 | 13.41891 | 121.09085 | 24919 ft | 405 kts | 147° |
| 2026-04-26 10:01 | 13.39575 | 121.10735 | 24931 ft | 415 kts | 147° |
| 2026-04-26 10:01 | 13.37154 | 121.12447 | 24938 ft | 424 kts | 147° |
| 2026-04-26 10:01 | 13.34691 | 121.14178 | 24948 ft | 434 kts | 147° |
| 2026-04-26 10:01 | 13.32176 | 121.15942 | 24784 ft | 445 kts | 147° |
| 2026-04-26 10:02 | 13.29570 | 121.17765 | 24538 ft | 453 kts | 147° |
| 2026-04-26 10:02 | 13.26975 | 121.19583 | 24294 ft | 454 kts | 147° |
| 2026-04-26 10:02 | 13.24340 | 121.21430 | 24047 ft | 453 kts | 147° |
| 2026-04-26 10:02 | 13.21738 | 121.23255 | 23802 ft | 452 kts | 147° |
| 2026-04-26 10:03 | 13.19161 | 121.25063 | 23559 ft | 450 kts | 147° |
| 2026-04-26 10:03 | 13.16590 | 121.26865 | 23315 ft | 449 kts | 147° |
| 2026-04-26 10:03 | 13.13987 | 121.28690 | 23069 ft | 447 kts | 146° |
| 2026-04-26 10:03 | 13.11443 | 121.30473 | 22827 ft | 445 kts | 146° |
| 2026-04-26 10:04 | 13.08929 | 121.32234 | 22589 ft | 445 kts | 146° |
| 2026-04-26 10:04 | 13.06389 | 121.34013 | 22348 ft | 444 kts | 146° |
| 2026-04-26 10:04 | 13.03872 | 121.35776 | 22136 ft | 443 kts | 146° |
| 2026-04-26 10:04 | 13.01313 | 121.37566 | 21893 ft | 442 kts | 146° |
| 2026-04-26 10:05 | 12.98766 | 121.39349 | 21660 ft | 440 kts | 146° |
| 2026-04-26 10:05 | 12.96243 | 121.41114 | 21422 ft | 438 kts | 146° |
| 2026-04-26 10:05 | 12.93745 | 121.42862 | 21188 ft | 436 kts | 146° |
| 2026-04-26 10:05 | 12.92047 | 121.44049 | 21030 ft | 435 kts | 146° |
| 2026-04-26 10:06 | 12.88719 | 121.46373 | 20705 ft | 433 kts | 146° |
| 2026-04-26 10:06 | 12.86229 | 121.48103 | 20468 ft | 431 kts | 146° |
| 2026-04-26 10:06 | 12.83750 | 121.49826 | 20232 ft | 430 kts | 146° |
| 2026-04-26 10:06 | 12.81286 | 121.51540 | 20000 ft | 428 kts | 146° |
| 2026-04-26 10:07 | 12.78809 | 121.53267 | 19764 ft | 426 kts | 146° |
| 2026-04-26 10:07 | 12.77189 | 121.54397 | 19604 ft | 425 kts | 146° |
| 2026-04-26 10:07 | 12.71512 | 121.58359 | 19033 ft | 421 kts | 146° |
| 2026-04-26 10:08 | 12.69074 | 121.60060 | 18746 ft | 419 kts | 146° |
| 2026-04-26 10:08 | 12.66700 | 121.61716 | 18412 ft | 418 kts | 146° |
| 2026-04-26 10:08 | 12.64294 | 121.63395 | 17957 ft | 414 kts | 146° |
| 2026-04-26 10:08 | 12.61923 | 121.65048 | 17471 ft | 411 kts | 146° |
| 2026-04-26 10:09 | 12.59557 | 121.66707 | 16968 ft | 407 kts | 145° |
| 2026-04-26 10:09 | 12.57259 | 121.68323 | 16454 ft | 404 kts | 145° |
| 2026-04-26 10:09 | 12.54927 | 121.69957 | 15924 ft | 401 kts | 145° |
| 2026-04-26 10:09 | 12.52626 | 121.71567 | 15404 ft | 398 kts | 145° |
| 2026-04-26 10:10 | 12.50355 | 121.73153 | 14901 ft | 395 kts | 145° |
| 2026-04-26 10:10 | 12.48089 | 121.74732 | 14384 ft | 392 kts | 145° |
| 2026-04-26 10:10 | 12.45826 | 121.76309 | 13870 ft | 389 kts | 145° |
| 2026-04-26 10:10 | 12.43623 | 121.77843 | 13366 ft | 386 kts | 145° |
| 2026-04-26 10:11 | 12.41389 | 121.79398 | 12858 ft | 383 kts | 145° |
| 2026-04-26 10:11 | 12.39195 | 121.80923 | 12363 ft | 380 kts | 146° |
| 2026-04-26 10:11 | 12.36937 | 121.82294 | 11862 ft | 377 kts | 153° |
| 2026-04-26 10:11 | 12.34552 | 121.83344 | 11369 ft | 375 kts | 160° |
| 2026-04-26 10:12 | 12.32074 | 121.84139 | 10882 ft | 371 kts | 163° |
| 2026-04-26 10:12 | 12.29605 | 121.84865 | 10483 ft | 365 kts | 163° |
| 2026-04-26 10:12 | 12.27210 | 121.85561 | 10314 ft | 339 kts | 163° |
| 2026-04-26 10:12 | 12.25030 | 121.86199 | 10195 ft | 312 kts | 162° |
| 2026-04-26 10:13 | 12.23017 | 121.86797 | 10096 ft | 294 kts | 162° |
| 2026-04-26 10:13 | 12.21076 | 121.87379 | 10005 ft | 285 kts | 162° |
| 2026-04-26 10:13 | 12.19172 | 121.87950 | 9901 ft | 281 kts | 162° |
| 2026-04-26 10:13 | 12.17269 | 121.88522 | 9592 ft | 281 kts | 162° |
| 2026-04-26 10:14 | 12.15389 | 121.89081 | 9287 ft | 279 kts | 162° |
| 2026-04-26 10:14 | 12.13534 | 121.89632 | 8982 ft | 278 kts | 161° |
| 2026-04-26 10:14 | 12.11665 | 121.90187 | 8668 ft | 277 kts | 161° |
| 2026-04-26 10:14 | 12.09815 | 121.90737 | 8364 ft | 276 kts | 161° |
| 2026-04-26 10:15 | 12.07968 | 121.91286 | 8052 ft | 274 kts | 161° |
| 2026-04-26 10:15 | 12.06117 | 121.91714 | 7712 ft | 274 kts | 176° |
| 2026-04-26 10:15 | 12.04266 | 121.91330 | 7390 ft | 276 kts | 205° |
| 2026-04-26 10:15 | 12.02774 | 121.90102 | 7075 ft | 275 kts | 232° |
| 2026-04-26 10:16 | 12.01686 | 121.88514 | 6788 ft | 272 kts | 236° |
| 2026-04-26 10:16 | 12.00643 | 121.86909 | 6496 ft | 270 kts | 236° |
| 2026-04-26 10:16 | 11.99592 | 121.85310 | 6204 ft | 268 kts | 235° |
| 2026-04-26 10:16 | 11.98544 | 121.83751 | 5923 ft | 265 kts | 234° |
| 2026-04-26 10:17 | 11.97505 | 121.82225 | 5663 ft | 262 kts | 234° |
| 2026-04-26 10:17 | 11.96466 | 121.80711 | 5397 ft | 260 kts | 234° |
| 2026-04-26 10:17 | 11.95419 | 121.79193 | 5122 ft | 257 kts | 234° |
| 2026-04-26 10:17 | 11.94396 | 121.77711 | 4854 ft | 256 kts | 234° |
| 2026-04-26 10:18 | 11.93372 | 121.76226 | 4580 ft | 254 kts | 233° |
| 2026-04-26 10:18 | 11.92318 | 121.74805 | 4296 ft | 252 kts | 221° |
| 2026-04-26 10:18 | 11.90841 | 121.73930 | 4011 ft | 243 kts | 188° |
| 2026-04-26 10:18 | 11.89212 | 121.73904 | 3922 ft | 222 kts | 160° |
| 2026-04-26 10:19 | 11.87854 | 121.74474 | 3894 ft | 208 kts | 146° |
| 2026-04-26 10:19 | 11.86568 | 121.75188 | 3864 ft | 209 kts | 145° |
| 2026-04-26 10:19 | 11.85283 | 121.75903 | 3840 ft | 208 kts | 143° |
| 2026-04-26 10:19 | 11.84247 | 121.76865 | 3821 ft | 195 kts | 110° |
| 2026-04-26 10:20 | 11.83994 | 121.78178 | 3615 ft | 191 kts | 77° |
| 2026-04-26 10:20 | 11.84431 | 121.79451 | 3286 ft | 192 kts | 63° |
| 2026-04-26 10:20 | 11.85049 | 121.80624 | 3091 ft | 184 kts | 60° |
| 2026-04-26 10:20 | 11.85678 | 121.81789 | 2657 ft | 183 kts | 62° |
| 2026-04-26 10:21 | 11.86229 | 121.82858 | 2514 ft | 158 kts | 62° |
| 2026-04-26 10:21 | 11.86708 | 121.83813 | 2371 ft | 146 kts | 63° |
| 2026-04-26 10:21 | 11.87163 | 121.84739 | 2187 ft | 144 kts | 63° |
| 2026-04-26 10:21 | 11.87611 | 121.85652 | 2031 ft | 145 kts | 63° |
| 2026-04-26 10:22 | 11.88061 | 121.86565 | 1782 ft | 138 kts | 63° |
| 2026-04-26 10:22 | 11.88479 | 121.87405 | 1594 ft | 128 kts | 63° |
| 2026-04-26 10:22 | 11.88883 | 121.88223 | 1456 ft | 130 kts | 63° |
| 2026-04-26 10:22 | 11.89292 | 121.89047 | 1281 ft | 131 kts | 63° |
| 2026-04-26 10:23 | 11.89706 | 121.89883 | 1110 ft | 131 kts | 63° |
| 2026-04-26 10:23 | 11.90119 | 121.90710 | 941 ft | 131 kts | 63° |
| 2026-04-26 10:23 | 11.90533 | 121.91541 | 760 ft | 131 kts | 63° |
| 2026-04-26 10:23 | 11.90947 | 121.92371 | 576 ft | 131 kts | 63° |
| 2026-04-26 10:24 | 11.91361 | 121.93202 | 428 ft | 131 kts | 63° |
| 2026-04-26 10:24 | 11.91769 | 121.94038 | 275 ft | 131 kts | 64° |
| 2026-04-26 10:24 | 11.92191 | 121.94867 | 72 ft | 130 kts | 64° |
| 2026-04-26 10:24 | 11.92577 | 121.95654 | 13 ft | 101 kts | 62° |
| 2026-04-26 10:25 | 11.92769 | 121.96027 | 12 ft | 22 kts | 64° |
| 2026-04-26 10:25 | 11.92795 | 121.96114 | 12 ft | 10 kts | 117° |
| 2026-04-26 10:25 | 11.92729 | 121.96157 | 12 ft | 11 kts | 152° |
| 2026-04-26 10:25 | 11.92655 | 121.96197 | 12 ft | 10 kts | 151° |
| 2026-04-26 10:26 | 11.92633 | 121.96235 | 12 ft | 7 kts | 77° |
| 2026-04-26 10:26 | 11.92655 | 121.96284 | 12 ft | 8 kts | 62° |
| 2026-04-26 10:26 | 11.92668 | 121.96320 | 12 ft | 4 kts | 100° |
| 2026-04-26 10:26 | 11.92654 | 121.96336 | 12 ft | 0 kts | 151° |
| 2026-04-26 10:27 | 11.92650 | 121.96338 | 12 ft | 1 kts | 150° |
| 2026-04-26 10:27 | 11.92639 | 121.96344 | 12 ft | 1 kts | 152° |
| 2026-04-26 10:27 | 11.92638 | 121.96345 | 12 ft | 0 kts | 152° |